Flight Track Log - Related Links

Times and Time Zones

All times are in EST time to prevent confusion due to time zone crossing. See the CMF5HF flight status page for this flight to view local times or setup timezone preferences in your user account.

Time Position Orientation Groundspeed Altitude Reporting Facility
EST Latitude Longitude Course Direction KTS MPH feet Rate Location/Type
Thu 09:41:50 AM 39.1131 -84.0572 72° East 171 197 5,100  Level Indianapolis Center
Thu 09:42:52 AM 39.1289 -83.9942 72° East 180 207 6,500 1,355 Climbing Indianapolis Center
Thu 09:43:54 AM 39.1439 -83.9300 73° East 186 214 7,900 1,355 Climbing Indianapolis Center
Thu 09:44:56 AM 39.1567 -83.8622 76° East 193 222 9,300 1,452 Climbing Indianapolis Center
Thu 09:45:58 AM 39.1750 -83.7775 74° East 202 232 10,900 1,452 Climbing Indianapolis Center
Thu 09:47:00 AM 39.1917 -83.7056 73° East 209 241 12,300 1,355 Climbing Indianapolis Center
Thu 09:48:02 AM 39.2072 -83.6300 75° East 217 250 13,700 1,306 Climbing Indianapolis Center
Thu 09:49:04 AM 39.2247 -83.5564 73° East 217 250 15,000 1,210 Climbing Indianapolis Center
Thu 09:50:06 AM 39.2406 -83.4794 75° East 223 257 16,200 1,152 Climbing Indianapolis Center
Thu 09:51:09 AM 39.2625 -83.3842 73° East 233 268 17,400 864 Climbing Indianapolis Center
Thu 09:52:11 AM 39.2806 -83.3025 74° East 239 275 18,000 774 Climbing Indianapolis Center
Thu 09:53:13 AM 39.2997 -83.2169 74° East 247 284 19,000 968 Climbing Indianapolis Center
Thu 09:54:15 AM 39.3178 -83.1297 75° East 252 290 20,000 919 Climbing Indianapolis Center
Thu 09:55:17 AM 39.3375 -83.0456 73° East 247 284 20,900 484 Climbing Indianapolis Center
Thu 09:56:19 AM 39.3603 -82.9369 75° East 261 300 21,000 48 Climbing Indianapolis Center
Thu 09:57:21 AM 39.3822 -82.8364 74° East 287 330 21,000  Level Indianapolis Center
Thu 09:58:23 AM 39.4044 -82.7339 74° East 297 342 21,000  Level Indianapolis Center
Thu 09:59:25 AM 39.4264 -82.6314 74° East 298 343 21,000  Level Indianapolis Center
Thu 10:00:27 AM 39.4481 -82.5281 75° East 299 344 21,000  Level Indianapolis Center
Thu 10:01:29 AM 39.4706 -82.4258 74° East 297 342 21,000  Level Indianapolis Center
Thu 10:02:31 AM 39.4967 -82.3006 75° East 301 346 21,000  Level Indianapolis Center
Thu 10:03:33 AM 39.5181 -82.1978 75° East 299 344 21,000  Level Indianapolis Center
Thu 10:04:35 AM 39.5397 -82.0950 75° East 298 343 21,000  Level Indianapolis Center
Thu 10:05:37 AM 39.5614 -81.9919 75° East 297 342 21,000  Level Indianapolis Center
Thu 10:06:39 AM 39.5822 -81.8864 76° East 299 344 21,000  Level Indianapolis Center
Thu 10:07:41 AM 39.6036 -81.7856 75° East 292 336 21,000  Level Indianapolis Center
Thu 10:08:43 AM 39.6272 -81.6667 76° East 284 327 21,000  Level Indianapolis Center
Thu 10:09:46 AM 39.6475 -81.5692 75° East 280 322 21,000  Level Indianapolis Center
Thu 10:10:48 AM 39.6681 -81.4697 75° East 283 326 21,000  Level Indianapolis Center
Thu 10:11:50 AM 39.6875 -81.3736 75° East 277 319 21,000  Level Indianapolis Center
Thu 10:12:52 AM 39.7072 -81.2747 75° East 280 322 21,000  Level Indianapolis Center
Thu 10:13:54 AM 39.7269 -81.1750 76° East 282 325 21,000  Level Indianapolis Center
Thu 10:14:56 AM 39.7469 -81.0744 75° East 286 329 21,000  Level Indianapolis Center
Thu 10:15:58 AM 39.7708 -80.9519 76° East 291 335 21,000  Level Indianapolis Center
Thu 10:17:00 AM 39.7908 -80.8503 76° East 291 335 21,000  Level Indianapolis Center
Thu 10:18:02 AM 39.8114 -80.7458 76° East 295 339 21,000  Level Indianapolis Center
Thu 10:19:04 AM 39.8311 -80.6433 76° East 293 337 21,000  Level Indianapolis Center
Thu 10:20:06 AM 39.8511 -80.5406 76° East 292 336 21,000  Level Indianapolis Center
Thu 10:21:04 AM 39.8722 -80.4442 74° East 293 337 21,000  Level Cleveland Center
Thu 10:22:06 AM 39.9072 -80.3506 64° Northeast 292 336 21,000  Level Cleveland Center
Thu 10:23:08 AM 39.9569 -80.2692 51° Northeast 290 334 21,000  Level Cleveland Center
Thu 10:24:10 AM 39.9897 -80.1500 70° East 295 339 21,000  Level Cleveland Center
Thu 10:25:12 AM 40.0075 -80.0467 77° East 296 341 21,000  Level Cleveland Center
Thu 10:26:14 AM 40.0261 -79.9431 77° East 295 339 21,000  Level Cleveland Center
Thu 10:27:16 AM 40.0439 -79.8403 77° East 294 338 21,000  Level Cleveland Center
Thu 10:28:18 AM 40.0622 -79.7375 77° East 294 338 21,000  Level Cleveland Center
Thu 10:29:20 AM 40.0836 -79.6139 77° East 293 337 21,000  Level Cleveland Center
Thu 10:30:23 AM 40.1019 -79.5111 77° East 294 338 21,000  Level Cleveland Center
Thu 10:31:25 AM 40.1189 -79.4075 78° East 293 337 21,000  Level Cleveland Center
Thu 10:32:27 AM 40.1381 -79.2972 77° East 294 338 21,000  Level Cleveland Center
Thu 10:33:29 AM 40.1542 -79.1972 78° East 287 330 21,000  Level Cleveland Center
Thu 10:34:31 AM 40.1717 -79.0975 77° East 284 327 21,000  Level Cleveland Center
Thu 10:35:33 AM 40.1928 -78.9789 77° East 282 325 21,000  Level Cleveland Center
Thu 10:36:35 AM 40.2075 -78.8797 79° East 280 322 21,000  Level Cleveland Center
Thu 10:37:37 AM 40.2247 -78.7789 77° East 285 328 21,000  Level Cleveland Center
Thu 10:38:39 AM 40.2414 -78.6792 78° East 284 327 21,000  Level Cleveland Center
Thu 10:39:41 AM 40.2572 -78.5825 78° East 278 320 21,000  Level Cleveland Center
Thu 10:40:43 AM 40.2764 -78.4642 78° East 278 320 21,000  Level Cleveland Center
Thu 10:41:45 AM 40.2922 -78.3672 78° East 276 318 21,000  Level Cleveland Center
Thu 10:42:47 AM 40.3083 -78.2697 78° East 276 318 21,000  Level Cleveland Center
Thu 10:43:49 AM 40.3244 -78.1700 78° East 279 321 21,000  Level Cleveland Center
Thu 10:44:51 AM 40.3403 -78.0714 78° East 279 321 21,000  Level Cleveland Center
Thu 10:45:54 AM 40.3581 -77.9533 79° East 278 320 21,000  Level Cleveland Center
Thu 10:46:45 AM 40.3733 -77.8686 77° East 274 315 21,000  Level New York Center
Thu 10:47:45 AM 40.3875 -77.7692 79° East 274 315 21,000  Level New York Center
Thu 10:48:45 AM 40.4042 -77.6644 78° East 274 315 21,000  Level New York Center
Thu 10:49:45 AM 40.4200 -77.5706 77° East 279 321 21,000  Level New York Center
Thu 10:50:45 AM 40.4342 -77.4683 80° East 284 327 21,000  Level New York Center
Thu 10:51:45 AM 40.4506 -77.3608 79° East 289 333 21,000  Level New York Center
Thu 10:52:45 AM 40.4672 -77.2478 79° East 294 338 21,000  Level New York Center
Thu 10:53:45 AM 40.4856 -77.1403 77° East 294 338 21,000 -250 Level New York Center
Thu 10:54:45 AM 40.5019 -77.0325 79° East 294 338 20,500 -650 Descending New York Center
Thu 10:55:45 AM 40.5281 -76.9311 71° East 301 346 19,700 -850 Descending New York Center
Thu 10:56:45 AM 40.5572 -76.8081 73° East 309 356 18,800 -900 Descending New York Center
Thu 10:57:45 AM 40.5817 -76.6981 74° East 315 362 17,900 -500 Descending New York Center
Thu 10:58:45 AM 40.6053 -76.5992 73° East 315 362 17,800 -700 Descending New York Center
Thu 10:59:45 AM 40.6314 -76.4892 73° East 315 362 16,500 -1,450 Descending New York Center
Thu 11:00:45 AM 40.6583 -76.3656 74° East 315 362 14,900 -1,500 Descending New York Center
Thu 11:01:45 AM 40.6839 -76.2608 72° East 315 362 13,500 -1,350 Descending New York Center
Thu 11:02:45 AM 40.7075 -76.1558 73° East 309 356 12,200 -1,100 Descending New York Center
Thu 11:03:45 AM 40.7283 -76.0672 73° East 286 329 11,300 -650 Descending New York Center
Thu 11:04:45 AM 40.7517 -75.9650 73° East 274 315 10,900 -150 Descending New York Center
Thu 11:05:45 AM 40.7719 -75.8814 72° East 263 303 11,000 -150 Climbing New York Center
Thu 11:06:45 AM 40.7925 -75.7897 73° East 258 297 10,600 -550 Descending New York Center
Thu 11:07:45 AM 40.8178 -75.6819 73° East 268 308 9,900 -600 Descending New York Center
Thu 11:08:45 AM 40.8386 -75.5847 74° East 274 315 9,400 -550 Descending New York Center
Thu 11:09:45 AM 40.8592 -75.4847 75° East 281 323 8,800 -550 Descending New York Center
Thu 11:10:45 AM 40.8817 -75.3903 72° East 281 323 8,300 -600 Descending New York Center
Thu 11:11:45 AM 40.9019 -75.2953 74° East 276 318 7,600 -700 Descending New York Center
Thu 11:12:45 AM 40.9197 -75.2114 74° East 266 306 6,900 -950 Descending New York Center
Thu 11:13:45 AM 40.9400 -75.1194 74° East 259 298 5,700 -950 Descending New York Center
Thu 11:14:45 AM 40.9619 -75.0300 72° East 247 284 5,000 -400 Descending New York Center
Thu 11:15:45 AM 40.9606 -74.9531 91° East 220 253 4,900 -500 Descending New York Center
Thu 11:16:45 AM 40.9469 -74.8617 101° East 235 270 4,000 -450 Descending New York Center
Thu 11:17:45 AM 40.9375 -74.7758 98° East 242 278 4,000  Level New York Center
Thu 11:18:45 AM 40.9275 -74.6956 99° East 226 260 4,000 -450 Level New York Center
Thu 11:19:45 AM 40.9178 -74.6128 99° East 226 260 3,100 -500 Descending New York Center
Thu 11:20:45 AM 40.9058 -74.5353 102° East 215 247 3,000 -50 Descending New York Center
Thu 11:21:45 AM 40.8936 -74.4631 103° East 201 231 3,000 -350 Level New York Center
Thu 11:22:45 AM 40.8767 -74.3964 109° East 196 226 2,300 -709 Descending New York Center
Thu 11:23:35 AM 40.8667 -74.3500 106° East 187 215 1,700 -764 Descending New York TRACON
Thu 11:24:35 AM 40.8500 -74.2833 108° East 143 165 900 -800 Descending New York TRACON
Thu 11:27:00 AM 40.8752 -74.2814 315° West  Level Estimated
Thu 11:34:00 AM 40.8752 -74.2814 315° West  Level Estimated
Thu 11:35:00 AM 40.8752 -74.2814 315° West  Level Estimated

Login

Don't have an account? Register now (free) for customized features, flight alerts, and more!